Amherst, Colorado
Current Conditions -  °F | °C
As of 5:55 AM on Saturday 20 Dec 2014 (Local Time) from KHEQ Reporting Station
Clear Clear  
Wind Chill: -12°   Ceiling: Unl
Heat Index: -6°   Visibility: 10mi
Dew Point: -9°   Wind: 9mph
Humidity: 80%   Direction: 260°W
Pressure: 29.99"   Gusts: NA
Location:  40.68°N, 102.17°W
Report Text: KHEQ 201255Z AUTO 26008KT 10SM CLR M06/M09 A2999 RMK AO2
Loading
Personal Weather Stations






























Interactive Weather Map New forecast layout! Learn more

10-Day Weather Forecast

Advertisements
Track Severe Weather on mobile